Time;durP1;ratioP1;P1;durP2;ratioP2;P2;SDS_P1;SDS_P2;PMS_P1;PMS_P2;Temp;Humidity;BMP_temperature;BMP_pressure;BME280_temperature;BME280_humidity;BME280_pressure;Samples;Min_cycle;Max_cycle;Signal;HPM_P1;HPM_P2
2023/10/11 00:01:19;;;;;;;19.33;10.75;;;;;;;;;;1042393;28;20048;-67
2023/10/11 00:01:49;;;;;;;17.58;10.57;;;;;;;;;;1041459;28;20045;-66
2023/10/11 00:02:20;;;;;;;18.52;10.50;;;;;;;;;;1042839;28;20048;-67
2023/10/11 00:02:51;;;;;;;19.92;11.07;;;;;;;;;;1045205;28;20044;-65
2023/10/11 00:03:56;;;;;;;20.85;11.55;;;;;;;;;;1046607;28;20102;-66
2023/10/11 00:04:27;;;;;;;16.13;10.68;;;;;;;;;;1043833;28;20471;-66
2023/10/11 00:04:57;;;;;;;19.83;11.65;;;;;;;;;;1045619;28;20467;-67
2023/10/11 00:05:35;;;;;;;20.00;11.43;;;;;;;;;;1045779;28;20055;-66
2023/10/11 00:06:06;;;;;;;16.83;11.20;;;;;;;;;;1044032;28;20419;-66
2023/10/11 00:06:37;;;;;;;18.15;10.20;;;;;;;;;;1044364;28;20048;-66
2023/10/11 00:07:09;;;;;;;19.10;11.10;;;;;;;;;;1042464;27;20052;-66
2023/10/11 00:07:40;;;;;;;19.08;11.50;;;;;;;;;;1044880;28;20059;-67
2023/10/11 00:08:13;;;;;;;20.20;11.50;;;;;;;;;;1044603;27;20056;-66
2023/10/11 00:08:43;;;;;;;17.77;10.85;;;;;;;;;;1044790;28;21169;-66
2023/10/11 00:09:16;;;;;;;21.10;10.98;;;;;;;;;;1042502;28;22633;-67
2023/10/11 00:09:51;;;;;;;17.98;11.07;;;;;;;;;;1045919;28;20143;-67
2023/10/11 00:10:22;;;;;;;17.88;10.75;;;;;;;;;;1040496;28;20075;-66
2023/10/11 00:10:58;;;;;;;18.45;11.15;;;;;;;;;;1040502;28;20063;-67
2023/10/11 00:11:30;;;;;;;18.92;11.15;;;;;;;;;;1040930;28;20071;-67
2023/10/11 00:12:04;;;;;;;21.75;11.82;;;;;;;;;;1041692;28;20049;-66
2023/10/11 00:12:35;;;;;;;20.13;11.23;;;;;;;;;;1040048;28;20061;-66
2023/10/11 00:13:07;;;;;;;17.05;10.57;;;;;;;;;;1039371;28;20124;-66
2023/10/11 00:13:37;;;;;;;18.90;10.88;;;;;;;;;;1044504;28;20080;-67
2023/10/11 00:14:08;;;;;;;23.15;12.07;;;;;;;;;;1042964;28;20056;-67
2023/10/11 00:14:39;;;;;;;18.08;10.88;;;;;;;;;;1039373;28;20060;-66
2023/10/11 00:15:10;;;;;;;20.17;11.80;;;;;;;;;;1039618;28;21281;-66
2023/10/11 00:15:42;;;;;;;16.75;10.93;;;;;;;;;;1040031;28;20053;-67
2023/10/11 00:16:16;;;;;;;18.13;11.05;;;;;;;;;;1039974;28;20051;-66
2023/10/11 00:16:53;;;;;;;21.55;11.32;;;;;;;;;;1040715;28;20053;-66
2023/10/11 00:17:23;;;;;;;15.30;10.85;;;;;;;;;;1040492;28;20144;-67
2023/10/11 00:17:53;;;;;;;19.63;11.15;;;;;;;;;;1038713;28;20050;-66
2023/10/11 00:18:26;;;;;;;17.45;10.95;;;;;;;;;;1043351;28;20048;-66
2023/10/11 00:18:57;;;;;;;19.45;11.60;;;;;;;;;;1044703;28;20082;-66
2023/10/11 00:19:28;;;;;;;17.95;11.23;;;;;;;;;;1039670;28;20072;-67
2023/10/11 00:20:00;;;;;;;18.92;11.23;;;;;;;;;;1041044;28;20049;-67
2023/10/11 00:20:46;;;;;;;19.42;11.05;;;;;;;;;;1044127;28;20787;-66
2023/10/11 00:21:17;;;;;;;18.55;11.00;;;;;;;;;;1045315;28;20079;-66
2023/10/11 00:21:49;;;;;;;20.20;11.52;;;;;;;;;;1045978;28;20102;-66
2023/10/11 00:22:21;;;;;;;19.40;11.07;;;;;;;;;;1044144;28;20044;-67
2023/10/11 00:22:52;;;;;;;27.02;12.50;;;;;;;;;;1044802;28;20075;-66
2023/10/11 00:23:25;;;;;;;17.10;11.13;;;;;;;;;;1045387;28;20052;-66
2023/10/11 00:23:55;;;;;;;17.85;11.30;;;;;;;;;;1043896;28;20045;-66
2023/10/11 00:24:28;;;;;;;20.05;11.77;;;;;;;;;;1043327;28;20059;-66
2023/10/11 00:24:59;;;;;;;21.88;11.75;;;;;;;;;;1044306;28;20091;-67
2023/10/11 00:25:29;;;;;;;18.17;11.15;;;;;;;;;;1041991;28;20045;-67
2023/10/11 00:26:00;;;;;;;20.13;12.10;;;;;;;;;;1044986;28;20435;-67
2023/10/11 00:26:30;;;;;;;19.13;10.60;;;;;;;;;;1042581;28;20879;-67
2023/10/11 00:27:02;;;;;;;24.42;12.35;;;;;;;;;;1045214;28;20044;-66
2023/10/11 00:27:33;;;;;;;21.38;12.40;;;;;;;;;;1045146;28;20059;-66
2023/10/11 00:28:05;;;;;;;19.85;12.00;;;;;;;;;;1045506;28;20052;-67
2023/10/11 00:28:37;;;;;;;22.75;12.45;;;;;;;;;;1045947;28;20052;-66
2023/10/11 00:29:09;;;;;;;20.80;11.50;;;;;;;;;;1046228;28;20045;-67
2023/10/11 00:29:40;;;;;;;23.52;13.10;;;;;;;;;;1045955;28;20143;-66
2023/10/11 00:30:11;;;;;;;22.75;12.20;;;;;;;;;;1043611;28;20090;-66
2023/10/11 00:30:46;;;;;;;21.10;12.45;;;;;;;;;;1045425;28;20091;-66
2023/10/11 00:31:19;;;;;;;20.67;12.63;;;;;;;;;;1045593;28;20067;-66
2023/10/11 00:31:52;;;;;;;21.42;12.57;;;;;;;;;;1045811;28;20064;-66
2023/10/11 00:32:22;;;;;;;20.50;11.95;;;;;;;;;;1045413;28;20044;-67
2023/10/11 00:32:53;;;;;;;21.48;12.30;;;;;;;;;;1045357;28;20625;-66
2023/10/11 00:33:24;;;;;;;19.35;11.88;;;;;;;;;;1045525;28;20040;-66
2023/10/11 00:33:55;;;;;;;20.67;11.43;;;;;;;;;;1045230;28;20128;-66
2023/10/11 00:34:25;;;;;;;19.77;12.15;;;;;;;;;;1045003;28;20075;-66
2023/10/11 00:34:55;;;;;;;17.35;10.85;;;;;;;;;;1045678;28;20060;-66
2023/10/11 00:35:26;;;;;;;24.08;12.18;;;;;;;;;;1043698;28;20075;-66
2023/10/11 00:36:01;;;;;;;21.02;12.00;;;;;;;;;;1045254;28;20094;-66
2023/10/11 00:36:31;;;;;;;20.60;11.82;;;;;;;;;;1044156;28;20048;-66
2023/10/11 00:37:05;;;;;;;18.60;11.85;;;;;;;;;;1044721;28;20058;-67
2023/10/11 00:37:38;;;;;;;24.30;13.38;;;;;;;;;;1041931;28;20045;-66
2023/10/11 00:38:11;;;;;;;19.30;11.77;;;;;;;;;;1040339;28;20965;-67
2023/10/11 00:38:50;;;;;;;18.85;11.60;;;;;;;;;;1039907;28;20049;-67
2023/10/11 00:39:20;;;;;;;22.75;12.38;;;;;;;;;;1040056;28;20507;-67
2023/10/11 00:39:51;;;;;;;16.73;11.07;;;;;;;;;;1040178;28;20063;-66
2023/10/11 00:40:31;;;;;;;20.95;11.35;;;;;;;;;;1038829;28;20148;-66
2023/10/11 00:41:12;;;;;;;20.33;11.25;;;;;;;;;;1039620;28;20055;-66
2023/10/11 00:41:48;;;;;;;20.35;12.52;;;;;;;;;;1043536;28;20052;-66
2023/10/11 00:42:19;;;;;;;22.38;12.60;;;;;;;;;;1042449;28;20129;-66
2023/10/11 00:42:50;;;;;;;18.00;11.50;;;;;;;;;;1041976;28;20126;-66
2023/10/11 00:43:34;;;;;;;21.27;13.25;;;;;;;;;;1042904;28;20049;-66
2023/10/11 00:44:05;;;;;;;21.80;11.73;;;;;;;;;;1045579;28;20094;-67
2023/10/11 00:44:36;;;;;;;22.08;12.18;;;;;;;;;;1043862;28;20098;-67
2023/10/11 00:45:08;;;;;;;25.65;14.50;;;;;;;;;;1045851;28;20060;-66
2023/10/11 00:45:43;;;;;;;24.35;12.23;;;;;;;;;;1044376;28;20051;-67
2023/10/11 00:46:18;;;;;;;17.48;11.13;;;;;;;;;;1043986;28;20523;-67
2023/10/11 00:47:26;;;;;;;21.42;11.55;;;;;;;;;;1045730;28;20051;-67
2023/10/11 00:47:59;;;;;;;19.58;11.70;;;;;;;;;;1045764;28;20082;-67
2023/10/11 00:48:31;;;;;;;22.17;12.70;;;;;;;;;;1044254;28;20049;-67
2023/10/11 00:49:14;;;;;;;23.10;12.75;;;;;;;;;;1044629;28;20474;-66
2023/10/11 00:49:45;;;;;;;20.15;11.75;;;;;;;;;;1044676;28;20055;-66
2023/10/11 00:50:16;;;;;;;22.08;12.43;;;;;;;;;;1045895;28;20145;-66
2023/10/11 00:50:49;;;;;;;21.42;12.75;;;;;;;;;;1045938;28;20053;-66
2023/10/11 00:51:32;;;;;;;21.05;10.70;;;;;;;;;;1042539;28;20110;-66
2023/10/11 00:52:06;;;;;;;22.08;11.15;;;;;;;;;;1044412;28;20052;-66
2023/10/11 00:52:37;;;;;;;24.10;11.70;;;;;;;;;;1046204;28;20492;-66
2023/10/11 00:53:10;;;;;;;20.60;11.98;;;;;;;;;;1042659;28;20631;-66
2023/10/11 00:53:40;;;;;;;21.48;12.18;;;;;;;;;;1045993;28;20590;-66
2023/10/11 00:54:15;;;;;;;20.00;12.88;;;;;;;;;;1044843;28;21450;-66
2023/10/11 00:54:46;;;;;;;23.35;12.60;;;;;;;;;;1044823;28;20044;-67
2023/10/11 00:55:18;;;;;;;20.50;11.80;;;;;;;;;;1042974;28;20044;-67
2023/10/11 00:55:48;;;;;;;18.58;11.70;;;;;;;;;;1040959;28;20815;-67
2023/10/11 00:56:22;;;;;;;20.35;12.75;;;;;;;;;;1043498;28;20071;-66
2023/10/11 00:56:54;;;;;;;21.10;11.38;;;;;;;;;;1043545;28;20044;-66
2023/10/11 00:57:25;;;;;;;21.83;12.55;;;;;;;;;;1045346;28;20689;-66
2023/10/11 00:57:56;;;;;;;19.05;11.38;;;;;;;;;;1045462;28;20402;-66
2023/10/11 00:58:28;;;;;;;20.85;13.15;;;;;;;;;;1044703;28;20058;-67
2023/10/11 00:59:10;;;;;;;21.33;12.80;;;;;;;;;;1045553;28;20060;-67
2023/10/11 00:59:41;;;;;;;18.75;11.98;;;;;;;;;;1041489;28;20068;-67
2023/10/11 01:00:17;;;;;;;22.42;12.45;;;;;;;;;;1040556;28;22655;-66
2023/10/11 01:00:49;;;;;;;22.70;13.50;;;;;;;;;;1041808;28;20048;-67
2023/10/11 01:01:22;;;;;;;21.67;12.27;;;;;;;;;;1040289;28;20059;-66
2023/10/11 01:01:55;;;;;;;22.83;12.93;;;;;;;;;;1041539;28;20045;-67
2023/10/11 01:02:27;;;;;;;22.27;12.73;;;;;;;;;;1039006;28;20053;-67
2023/10/11 01:02:58;;;;;;;22.77;12.85;;;;;;;;;;1041762;28;20080;-66
2023/10/11 01:03:33;;;;;;;19.42;12.35;;;;;;;;;;1044772;28;20071;-67
2023/10/11 01:04:06;;;;;;;21.90;12.15;;;;;;;;;;1043471;28;20703;-67
2023/10/11 01:04:38;;;;;;;20.02;11.38;;;;;;;;;;1041293;28;20841;-67
2023/10/11 01:05:09;;;;;;;23.95;13.05;;;;;;;;;;1040929;28;20052;-67
2023/10/11 01:05:43;;;;;;;23.67;13.50;;;;;;;;;;1040326;28;20472;-66
2023/10/11 01:06:15;;;;;;;21.95;12.77;;;;;;;;;;1042563;28;20055;-67
2023/10/11 01:06:49;;;;;;;24.33;12.32;;;;;;;;;;1044042;28;20048;-66
2023/10/11 01:07:20;;;;;;;21.23;12.73;;;;;;;;;;1042720;28;20670;-67
2023/10/11 01:07:51;;;;;;;23.13;13.13;;;;;;;;;;1040921;28;20482;-66
2023/10/11 01:08:21;;;;;;;20.88;12.82;;;;;;;;;;1042172;28;21275;-66
2023/10/11 01:08:52;;;;;;;21.55;13.68;;;;;;;;;;1041347;28;20049;-67
2023/10/11 01:09:28;;;;;;;22.40;13.20;;;;;;;;;;1043154;28;20040;-67
2023/10/11 01:09:59;;;;;;;24.65;13.40;;;;;;;;;;1044370;28;20060;-66
2023/10/11 01:10:29;;;;;;;22.48;12.23;;;;;;;;;;1045905;28;20052;-66
2023/10/11 01:11:00;;;;;;;22.15;13.38;;;;;;;;;;1045295;28;20048;-66
2023/10/11 01:11:30;;;;;;;23.77;13.15;;;;;;;;;;1044376;28;20127;-66
2023/10/11 01:12:01;;;;;;;21.48;12.88;;;;;;;;;;1043944;28;20044;-67
2023/10/11 01:12:32;;;;;;;22.20;13.20;;;;;;;;;;1045669;28;20168;-67
2023/10/11 01:13:03;;;;;;;21.40;12.48;;;;;;;;;;1045208;28;20051;-67
2023/10/11 01:13:34;;;;;;;19.35;12.60;;;;;;;;;;1044487;28;20044;-66
2023/10/11 01:14:05;;;;;;;24.17;13.52;;;;;;;;;;1044523;28;20378;-66
2023/10/11 01:14:38;;;;;;;23.27;13.27;;;;;;;;;;1045140;28;20049;-67
2023/10/11 01:15:12;;;;;;;19.85;12.95;;;;;;;;;;1045363;28;20106;-66
2023/10/11 01:15:42;;;;;;;26.90;13.07;;;;;;;;;;1044694;28;20053;-66
2023/10/11 01:16:14;;;;;;;25.83;13.48;;;;;;;;;;1045047;28;20075;-67
2023/10/11 01:16:45;;;;;;;23.85;13.80;;;;;;;;;;1045447;28;20055;-67
2023/10/11 01:17:15;;;;;;;23.45;13.50;;;;;;;;;;1043377;28;20051;-67
2023/10/11 01:17:46;;;;;;;26.10;13.00;;;;;;;;;;1043736;28;20056;-66
2023/10/11 01:18:16;;;;;;;23.95;13.88;;;;;;;;;;1043828;28;20052;-67
2023/10/11 01:18:47;;;;;;;24.17;12.63;;;;;;;;;;1046293;28;20159;-67
2023/10/11 01:19:18;;;;;;;19.98;12.30;;;;;;;;;;1044315;28;20117;-67
2023/10/11 01:19:51;;;;;;;24.85;13.35;;;;;;;;;;1044646;28;20048;-66
2023/10/11 01:20:22;;;;;;;26.48;14.38;;;;;;;;;;1043522;28;20062;-67
2023/10/11 01:20:52;;;;;;;21.23;11.85;;;;;;;;;;1046285;28;20048;-66
2023/10/11 01:21:23;;;;;;;23.55;13.13;;;;;;;;;;1044776;28;20067;-66
2023/10/11 01:21:59;;;;;;;19.63;12.13;;;;;;;;;;1045417;28;20055;-66
2023/10/11 01:22:29;;;;;;;25.13;13.88;;;;;;;;;;1044471;28;20891;-66
2023/10/11 01:23:00;;;;;;;19.52;12.25;;;;;;;;;;1046382;28;20522;-67
2023/10/11 01:23:34;;;;;;;20.55;12.75;;;;;;;;;;1044071;28;20057;-67
2023/10/11 01:24:08;;;;;;;22.05;12.93;;;;;;;;;;1044797;28;20056;-66
2023/10/11 01:24:41;;;;;;;21.77;12.52;;;;;;;;;;1045342;28;20083;-66
2023/10/11 01:25:18;;;;;;;24.27;13.38;;;;;;;;;;1045805;28;20456;-66
2023/10/11 01:25:49;;;;;;;24.73;12.73;;;;;;;;;;1044808;28;20501;-67
2023/10/11 01:26:19;;;;;;;27.58;13.20;;;;;;;;;;1045527;28;20492;-67
2023/10/11 01:26:50;;;;;;;23.23;13.00;;;;;;;;;;1044744;28;20051;-67
2023/10/11 01:27:25;;;;;;;19.95;11.68;;;;;;;;;;1044417;28;20047;-67
2023/10/11 01:27:56;;;;;;;21.30;12.68;;;;;;;;;;1043715;28;20048;-67
2023/10/11 01:28:27;;;;;;;23.02;13.48;;;;;;;;;;1045518;28;20048;-66
2023/10/11 01:28:58;;;;;;;21.55;12.98;;;;;;;;;;1044965;28;20147;-66
2023/10/11 01:29:28;;;;;;;22.48;12.85;;;;;;;;;;1044746;28;20408;-66
2023/10/11 01:29:59;;;;;;;22.10;12.75;;;;;;;;;;1046311;28;20049;-67
2023/10/11 01:30:29;;;;;;;23.48;13.15;;;;;;;;;;1044492;28;20060;-67
2023/10/11 01:31:01;;;;;;;22.90;13.40;;;;;;;;;;1044502;28;20441;-66
2023/10/11 01:31:33;;;;;;;24.05;13.15;;;;;;;;;;1041361;28;20049;-66
2023/10/11 01:32:03;;;;;;;25.60;13.63;;;;;;;;;;1045393;28;20045;-67
2023/10/11 01:32:43;;;;;;;23.23;13.40;;;;;;;;;;1044127;28;20048;-67
2023/10/11 01:33:16;;;;;;;23.20;13.13;;;;;;;;;;1045365;28;20048;-67
2023/10/11 01:33:52;;;;;;;24.88;13.43;;;;;;;;;;1045300;28;20037;-67
2023/10/11 01:34:27;;;;;;;23.10;13.20;;;;;;;;;;1044914;28;20245;-66
2023/10/11 01:34:57;;;;;;;25.05;13.93;;;;;;;;;;1044563;28;20409;-66
2023/10/11 01:35:35;;;;;;;21.65;12.60;;;;;;;;;;1045598;28;20493;-67
2023/10/11 01:36:09;;;;;;;26.65;13.82;;;;;;;;;;1043662;28;20119;-67
2023/10/11 01:36:40;;;;;;;23.23;13.32;;;;;;;;;;1045889;28;20562;-66
2023/10/11 01:37:10;;;;;;;23.75;14.13;;;;;;;;;;1044844;28;20052;-66
2023/10/11 01:37:42;;;;;;;20.75;13.25;;;;;;;;;;1044984;28;20080;-66
2023/10/11 01:38:17;;;;;;;26.90;14.98;;;;;;;;;;1043512;28;20117;-66
2023/10/11 01:38:47;;;;;;;24.55;14.02;;;;;;;;;;1046098;28;20516;-66
2023/10/11 01:39:21;;;;;;;26.52;13.77;;;;;;;;;;1043900;28;20681;-67
2023/10/11 01:39:51;;;;;;;25.02;13.57;;;;;;;;;;1045229;28;20466;-66
2023/10/11 01:40:24;;;;;;;26.00;14.40;;;;;;;;;;1043158;28;20715;-66
2023/10/11 01:40:55;;;;;;;24.55;13.90;;;;;;;;;;1045840;28;20075;-66
2023/10/11 01:41:28;;;;;;;25.50;13.90;;;;;;;;;;1044631;28;20048;-67
2023/10/11 01:41:59;;;;;;;24.85;14.35;;;;;;;;;;1045673;28;20051;-67
2023/10/11 01:42:31;;;;;;;27.88;13.65;;;;;;;;;;1044333;28;20055;-67
2023/10/11 01:43:03;;;;;;;27.98;14.05;;;;;;;;;;1044633;28;20095;-67
2023/10/11 01:43:34;;;;;;;26.42;14.73;;;;;;;;;;1044628;28;20497;-66
2023/10/11 01:44:07;;;;;;;27.88;14.02;;;;;;;;;;1044072;28;20048;-67
2023/10/11 01:44:38;;;;;;;26.27;13.95;;;;;;;;;;1045470;28;20044;-67
2023/10/11 01:45:09;;;;;;;28.02;15.32;;;;;;;;;;1045328;28;21569;-66
2023/10/11 01:45:40;;;;;;;24.38;14.60;;;;;;;;;;1044346;28;20467;-67
2023/10/11 01:46:10;;;;;;;25.38;14.07;;;;;;;;;;1044468;28;20048;-66
2023/10/11 01:46:41;;;;;;;25.38;14.18;;;;;;;;;;1045412;28;20048;-67
2023/10/11 01:47:12;;;;;;;25.83;12.90;;;;;;;;;;1044916;28;20147;-66
2023/10/11 01:47:43;;;;;;;24.25;14.00;;;;;;;;;;1043886;28;20497;-66
2023/10/11 01:48:15;;;;;;;24.65;13.60;;;;;;;;;;1044528;28;20059;-67
2023/10/11 01:48:45;;;;;;;26.88;14.25;;;;;;;;;;1045269;28;20055;-67
2023/10/11 01:49:16;;;;;;;28.13;14.52;;;;;;;;;;1044117;28;20056;-67
2023/10/11 01:49:47;;;;;;;21.88;12.32;;;;;;;;;;1044571;28;20063;-67
2023/10/11 01:50:18;;;;;;;22.67;13.90;;;;;;;;;;1042798;28;20083;-66
2023/10/11 01:50:48;;;;;;;25.25;13.88;;;;;;;;;;1045859;28;20564;-67
2023/10/11 01:51:28;;;;;;;23.20;13.90;;;;;;;;;;1044896;28;20496;-66
2023/10/11 01:51:59;;;;;;;25.52;13.88;;;;;;;;;;1045265;28;20088;-66
2023/10/11 01:52:34;;;;;;;26.42;13.57;;;;;;;;;;1043875;28;20036;-66
2023/10/11 01:53:08;;;;;;;21.77;14.02;;;;;;;;;;1045374;28;20060;-67
2023/10/11 01:53:38;;;;;;;25.05;14.45;;;;;;;;;;1044504;28;20421;-66
2023/10/11 01:54:09;;;;;;;23.27;14.15;;;;;;;;;;1044030;28;20497;-67
2023/10/11 01:54:40;;;;;;;26.35;14.45;;;;;;;;;;1045598;28;20125;-67
2023/10/11 01:55:10;;;;;;;25.48;14.02;;;;;;;;;;1043359;28;20048;-66
2023/10/11 01:55:41;;;;;;;25.25;13.68;;;;;;;;;;1042899;28;20059;-66
2023/10/11 01:56:13;;;;;;;27.20;15.27;;;;;;;;;;1046143;28;21616;-67
2023/10/11 01:56:45;;;;;;;25.73;14.05;;;;;;;;;;1045492;28;20052;-66
2023/10/11 01:57:16;;;;;;;28.17;13.73;;;;;;;;;;1045206;28;20060;-66
2023/10/11 01:57:49;;;;;;;26.63;13.85;;;;;;;;;;1042854;28;20068;-66
2023/10/11 01:58:20;;;;;;;24.80;14.93;;;;;;;;;;1045739;28;20048;-66
2023/10/11 01:58:51;;;;;;;25.65;14.52;;;;;;;;;;1044643;28;20049;-67
2023/10/11 01:59:21;;;;;;;24.45;13.68;;;;;;;;;;1045631;28;20155;-66
2023/10/11 01:59:52;;;;;;;26.10;14.68;;;;;;;;;;1044326;28;20465;-66
2023/10/11 02:00:29;;;;;;;24.88;14.07;;;;;;;;;;1044420;28;20051;-66
2023/10/11 02:01:02;;;;;;;26.25;13.57;;;;;;;;;;1043125;28;20048;-67
2023/10/11 02:01:39;;;;;;;25.25;14.10;;;;;;;;;;1040928;28;20057;-66
2023/10/11 02:02:10;;;;;;;23.88;13.57;;;;;;;;;;1041677;28;20060;-67
2023/10/11 02:02:55;;;;;;;24.30;14.02;;;;;;;;;;1043727;28;20587;-67
2023/10/11 02:03:27;;;;;;;21.17;13.90;;;;;;;;;;1044337;27;20059;-66
2023/10/11 02:03:59;;;;;;;24.30;13.55;;;;;;;;;;1047209;28;20404;-66
2023/10/11 02:04:30;;;;;;;26.08;14.48;;;;;;;;;;1040812;28;20056;-66
2023/10/11 02:05:04;;;;;;;24.50;13.90;;;;;;;;;;1041294;28;20037;-66
2023/10/11 02:05:35;;;;;;;25.10;13.35;;;;;;;;;;1039652;28;20056;-66
2023/10/11 02:06:05;;;;;;;22.20;14.02;;;;;;;;;;1039596;28;20060;-66
2023/10/11 02:06:38;;;;;;;24.45;14.93;;;;;;;;;;1041184;28;20056;-66
2023/10/11 02:07:09;;;;;;;24.63;14.25;;;;;;;;;;1042400;28;20061;-66
2023/10/11 02:07:39;;;;;;;26.42;14.50;;;;;;;;;;1044453;28;20123;-66
2023/10/11 02:08:16;;;;;;;23.40;14.50;;;;;;;;;;1043819;28;20646;-66
2023/10/11 02:08:47;;;;;;;24.65;14.55;;;;;;;;;;1044738;28;20394;-66
2023/10/11 02:09:21;;;;;;;25.52;14.70;;;;;;;;;;1044518;28;20527;-66
2023/10/11 02:09:52;;;;;;;26.83;14.18;;;;;;;;;;1044677;28;20765;-65
2023/10/11 02:10:26;;;;;;;24.63;14.35;;;;;;;;;;1045900;28;20090;-66
2023/10/11 02:11:01;;;;;;;30.02;15.15;;;;;;;;;;1044239;28;20049;-66
2023/10/11 02:11:32;;;;;;;23.45;13.98;;;;;;;;;;1044368;28;20541;-66
2023/10/11 02:12:10;;;;;;;27.23;14.82;;;;;;;;;;1043206;28;20489;-66
2023/10/11 02:12:44;;;;;;;27.67;14.82;;;;;;;;;;1045013;28;20053;-67
2023/10/11 02:13:15;;;;;;;21.48;13.73;;;;;;;;;;1040655;28;20441;-66
2023/10/11 02:13:45;;;;;;;22.25;14.77;;;;;;;;;;1040816;28;20584;-66
2023/10/11 02:14:16;;;;;;;26.48;14.77;;;;;;;;;;1037523;28;20501;-66
2023/10/11 02:14:47;;;;;;;27.20;14.88;;;;;;;;;;1040539;28;20133;-66
2023/10/11 02:15:29;;;;;;;24.80;14.73;;;;;;;;;;1041811;28;20060;-66
2023/10/11 02:16:00;;;;;;;21.75;13.65;;;;;;;;;;1045306;28;20527;-66
2023/10/11 02:16:31;;;;;;;23.85;14.60;;;;;;;;;;1043942;28;20041;-66
2023/10/11 02:17:04;;;;;;;26.95;14.82;;;;;;;;;;1044013;28;20056;-66
2023/10/11 02:17:38;;;;;;;24.33;13.95;;;;;;;;;;1043847;28;20500;-66
2023/10/11 02:18:10;;;;;;;27.05;14.35;;;;;;;;;;1042780;28;20954;-66
2023/10/11 02:18:41;;;;;;;23.48;15.27;;;;;;;;;;1044668;28;20053;-66
2023/10/11 02:19:15;;;;;;;22.42;14.32;;;;;;;;;;1046029;28;20056;-66
2023/10/11 02:19:45;;;;;;;24.65;14.52;;;;;;;;;;1045046;28;20094;-66
2023/10/11 02:20:21;;;;;;;31.63;14.95;;;;;;;;;;1042565;28;20114;-66
2023/10/11 02:20:55;;;;;;;25.88;14.57;;;;;;;;;;1040229;28;20104;-66
2023/10/11 02:21:29;;;;;;;24.38;14.02;;;;;;;;;;1040148;28;20381;-66
2023/10/11 02:22:00;;;;;;;23.52;14.00;;;;;;;;;;1040253;28;20057;-67
2023/10/11 02:22:32;;;;;;;27.25;14.82;;;;;;;;;;1040752;28;20223;-67
2023/10/11 02:23:04;;;;;;;23.30;13.85;;;;;;;;;;1039988;28;20045;-66
2023/10/11 02:23:39;;;;;;;26.35;14.98;;;;;;;;;;1039894;28;20046;-66
2023/10/11 02:24:14;;;;;;;24.52;14.25;;;;;;;;;;1040551;28;20060;-66
2023/10/11 02:24:45;;;;;;;26.27;14.80;;;;;;;;;;1045881;28;20079;-66
2023/10/11 02:25:16;;;;;;;21.83;13.82;;;;;;;;;;1040159;28;20053;-66
2023/10/11 02:25:48;;;;;;;24.02;15.20;;;;;;;;;;1040519;28;20055;-66
2023/10/11 02:26:27;;;;;;;25.98;14.10;;;;;;;;;;1040020;28;20045;-66
2023/10/11 02:26:58;;;;;;;25.73;14.60;;;;;;;;;;1041832;28;20041;-66
2023/10/11 02:27:32;;;;;;;25.77;15.13;;;;;;;;;;1038020;28;20060;-66
2023/10/11 02:28:07;;;;;;;26.58;15.02;;;;;;;;;;1041706;28;20049;-67
2023/10/11 02:28:41;;;;;;;23.02;14.30;;;;;;;;;;1044264;28;20427;-66
2023/10/11 02:29:21;;;;;;;24.80;14.60;;;;;;;;;;1042660;28;20056;-66
2023/10/11 02:29:51;;;;;;;24.95;14.50;;;;;;;;;;1041580;28;20150;-66
2023/10/11 02:30:25;;;;;;;28.77;15.95;;;;;;;;;;1038534;28;20445;-66
2023/10/11 02:30:56;;;;;;;23.98;14.13;;;;;;;;;;1042509;28;20132;-66
2023/10/11 02:31:31;;;;;;;21.27;14.07;;;;;;;;;;1040361;28;20068;-66
2023/10/11 02:32:04;;;;;;;27.05;14.90;;;;;;;;;;1042357;28;20071;-66
2023/10/11 02:32:38;;;;;;;26.10;14.80;;;;;;;;;;1039372;28;20053;-67
2023/10/11 02:33:11;;;;;;;27.30;15.25;;;;;;;;;;1040714;28;20095;-66
2023/10/11 02:33:42;;;;;;;26.17;15.23;;;;;;;;;;1041852;28;20498;-67
2023/10/11 02:34:15;;;;;;;28.13;15.73;;;;;;;;;;1042097;28;20501;-67
2023/10/11 02:34:49;;;;;;;24.38;13.80;;;;;;;;;;1045060;28;20059;-66
2023/10/11 02:35:20;;;;;;;30.10;15.35;;;;;;;;;;1041289;28;20051;-66
2023/10/11 02:35:56;;;;;;;25.67;14.93;;;;;;;;;;1041423;28;20057;-66
2023/10/11 02:36:26;;;;;;;26.98;15.30;;;;;;;;;;1040634;28;20053;-65
2023/10/11 02:37:10;;;;;;;27.67;15.43;;;;;;;;;;1041666;28;20083;-66
2023/10/11 02:37:45;;;;;;;24.98;15.15;;;;;;;;;;1041911;28;20057;-66
2023/10/11 02:38:21;;;;;;;23.63;15.15;;;;;;;;;;1040637;28;20437;-67
2023/10/11 02:38:53;;;;;;;25.02;13.73;;;;;;;;;;1042283;28;20099;-66
2023/10/11 02:39:42;;;;;;;23.98;14.68;;;;;;;;;;1039636;28;20068;-66
2023/10/11 02:40:22;;;;;;;27.08;14.70;;;;;;;;;;1038409;28;20566;-66
2023/10/11 02:40:56;;;;;;;25.13;15.15;;;;;;;;;;1042722;28;20474;-67
2023/10/11 02:41:26;;;;;;;24.50;14.43;;;;;;;;;;1044087;28;20091;-66
2023/10/11 02:41:58;;;;;;;26.75;14.90;;;;;;;;;;1044775;28;20048;-65
2023/10/11 02:42:28;;;;;;;27.00;16.08;;;;;;;;;;1040455;28;20425;-66
2023/10/11 02:43:03;;;;;;;25.63;15.73;;;;;;;;;;1041974;28;20457;-66
2023/10/11 02:43:47;;;;;;;23.33;13.93;;;;;;;;;;1043561;28;20447;-67
2023/10/11 02:44:22;;;;;;;28.80;15.55;;;;;;;;;;1046015;28;20044;-66
2023/10/11 02:44:53;;;;;;;25.08;14.98;;;;;;;;;;1045883;28;20051;-66
2023/10/11 02:45:23;;;;;;;27.50;15.38;;;;;;;;;;1045161;28;20055;-66
2023/10/11 02:45:54;;;;;;;24.92;16.08;;;;;;;;;;1045937;28;20049;-66
2023/10/11 02:46:25;;;;;;;25.33;15.55;;;;;;;;;;1046300;28;20049;-66
2023/10/11 02:46:58;;;;;;;28.77;15.90;;;;;;;;;;1045161;28;20048;-66
2023/10/11 02:47:29;;;;;;;27.02;15.35;;;;;;;;;;1044445;28;20059;-66
2023/10/11 02:47:59;;;;;;;26.42;14.50;;;;;;;;;;1046275;28;20040;-67
2023/10/11 02:48:30;;;;;;;25.92;15.80;;;;;;;;;;1045497;28;20052;-67
2023/10/11 02:49:18;;;;;;;29.77;16.83;;;;;;;;;;1043934;28;20048;-67
2023/10/11 02:49:52;;;;;;;26.27;15.68;;;;;;;;;;1045288;28;20050;-66
2023/10/11 02:50:22;;;;;;;24.70;14.20;;;;;;;;;;1045179;28;20060;-66
2023/10/11 02:50:56;;;;;;;25.45;16.25;;;;;;;;;;1045626;28;20056;-67
2023/10/11 02:51:27;;;;;;;28.00;15.48;;;;;;;;;;1045107;28;20052;-66
2023/10/11 02:52:05;;;;;;;29.35;15.88;;;;;;;;;;1047002;28;20055;-66
2023/10/11 02:52:36;;;;;;;27.23;14.95;;;;;;;;;;1043288;28;22050;-66
2023/10/11 02:53:21;;;;;;;27.45;14.70;;;;;;;;;;1045040;28;20713;-66
2023/10/11 02:53:54;;;;;;;24.65;15.63;;;;;;;;;;1045848;28;20049;-66
2023/10/11 02:54:33;;;;;;;24.80;15.98;;;;;;;;;;1043996;28;20624;-66
2023/10/11 02:55:57;;;;;;;26.10;15.27;;;;;;;;;;1045677;28;20055;-66
2023/10/11 02:56:28;;;;;;;23.20;14.93;;;;;;;;;;1043954;28;20048;-66
2023/10/11 02:56:59;;;;;;;24.23;14.77;;;;;;;;;;1044465;28;20044;-65
2023/10/11 02:57:31;;;;;;;25.38;15.20;;;;;;;;;;1046117;28;20041;-67
2023/10/11 02:58:08;;;;;;;26.98;15.85;;;;;;;;;;1044875;28;20071;-66
2023/10/11 02:58:39;;;;;;;24.00;14.48;;;;;;;;;;1043550;28;20056;-67
2023/10/11 02:59:11;;;;;;;28.52;16.38;;;;;;;;;;1043989;28;20052;-66
2023/10/11 02:59:44;;;;;;;26.83;15.88;;;;;;;;;;1046183;28;20509;-66
2023/10/11 03:00:21;;;;;;;27.80;16.05;;;;;;;;;;1043193;28;20056;-67
2023/10/11 03:01:00;;;;;;;24.85;15.35;;;;;;;;;;1037824;28;20135;-66
2023/10/11 03:01:31;;;;;;;26.10;15.63;;;;;;;;;;1043154;28;20743;-66
2023/10/11 03:02:03;;;;;;;28.50;15.63;;;;;;;;;;1046547;28;20701;-66
2023/10/11 03:02:38;;;;;;;27.55;16.00;;;;;;;;;;1040941;28;20102;-66
2023/10/11 03:03:11;;;;;;;30.08;16.80;;;;;;;;;;1041389;28;20577;-66
2023/10/11 03:03:43;;;;;;;26.05;14.82;;;;;;;;;;1042585;28;20056;-67
2023/10/11 03:04:15;;;;;;;26.08;16.08;;;;;;;;;;1042265;28;20595;-66
2023/10/11 03:04:46;;;;;;;29.50;16.08;;;;;;;;;;1041304;28;20056;-66
2023/10/11 03:05:20;;;;;;;27.58;16.55;;;;;;;;;;1040654;28;20076;-66
2023/10/11 03:05:51;;;;;;;27.63;16.17;;;;;;;;;;1040347;28;20037;-67
2023/10/11 03:06:22;;;;;;;27.25;16.20;;;;;;;;;;1043795;28;20048;-67
2023/10/11 03:06:53;;;;;;;25.73;15.35;;;;;;;;;;1045772;28;20052;-66
2023/10/11 03:07:23;;;;;;;25.95;15.57;;;;;;;;;;1044200;28;20052;-66
2023/10/11 03:07:55;;;;;;;31.05;16.92;;;;;;;;;;1045943;28;20128;-67
2023/10/11 03:08:26;;;;;;;31.02;17.35;;;;;;;;;;1041130;28;20484;-66
2023/10/11 03:08:56;;;;;;;26.10;15.52;;;;;;;;;;1041562;28;20568;-67
2023/10/11 03:09:28;;;;;;;25.15;15.40;;;;;;;;;;1040848;28;20115;-67
2023/10/11 03:09:58;;;;;;;27.05;16.10;;;;;;;;;;1040871;28;20044;-66
2023/10/11 03:10:29;;;;;;;31.45;16.27;;;;;;;;;;1039894;28;20083;-66
2023/10/11 03:11:04;;;;;;;25.92;15.30;;;;;;;;;;1041564;28;20127;-66
2023/10/11 03:11:35;;;;;;;25.00;15.75;;;;;;;;;;1045332;28;20114;-66
2023/10/11 03:12:06;;;;;;;26.50;16.27;;;;;;;;;;1044667;28;20554;-66
2023/10/11 03:12:39;;;;;;;25.25;16.30;;;;;;;;;;1045830;28;20126;-67
2023/10/11 03:13:23;;;;;;;27.10;16.23;;;;;;;;;;1045586;28;20060;-67